createdAt,value
2022-11-12T00:00:43.891Z,39.95
2022-11-12T00:06:04.573Z,41.90
2022-11-12T00:11:25.626Z,39.38
2022-11-12T00:16:46.507Z,39.42
2022-11-12T00:22:07.397Z,41.05
2022-11-12T00:27:28.362Z,40.75
2022-11-12T00:32:49.157Z,48.70
2022-11-12T00:38:09.900Z,46.45
2022-11-12T00:43:30.705Z,41.58
2022-11-12T00:48:51.688Z,39.88
2022-11-12T00:54:12.452Z,77.35
2022-11-12T00:59:33.604Z,67.50
2022-11-12T01:04:54.173Z,47.03
2022-11-12T01:10:15.673Z,39.70
2022-11-12T01:15:41.796Z,39.30
2022-11-12T01:21:07.767Z,41.72
2022-11-12T01:26:28.914Z,41.80
2022-11-12T01:31:49.685Z,40.88
2022-11-12T01:37:10.330Z,54.90
2022-11-12T01:42:33.215Z,41.72
2022-11-12T01:47:53.713Z,42.90
2022-11-12T01:53:14.847Z,39.60
2022-11-12T01:58:38.880Z,30.60
2022-11-12T02:03:59.429Z,37.40
2022-11-12T02:09:20.303Z,37.15
2022-11-12T02:14:41.308Z,33.55
2022-11-12T02:20:02.762Z,37.63
2022-11-12T02:25:25.076Z,32.53
2022-11-12T02:30:49.441Z,29.83
2022-11-12T02:36:10.468Z,29.55
2022-11-12T02:41:31.180Z,30.27
2022-11-12T02:46:52.017Z,27.17
2022-11-12T02:52:13.076Z,22.83
2022-11-12T02:57:34.161Z,26.77
2022-11-12T03:02:59.328Z,24.90
2022-11-12T03:08:20.151Z,23.92
2022-11-12T03:13:41.783Z,23.98
2022-11-12T03:24:23.525Z,24.60
2022-11-12T03:29:44.379Z,22.48
2022-11-12T03:35:05.856Z,20.63
2022-11-12T03:40:27.297Z,25.20
2022-11-12T03:51:08.905Z,20.80
2022-11-12T03:56:29.641Z,20.88
2022-11-12T04:01:50.607Z,15.73
2022-11-12T04:07:29.988Z,15.98
2022-11-12T04:13:09.393Z,17.52
2022-11-12T04:18:49.078Z,20.17
2022-11-12T04:24:29.789Z,17.52
2022-11-12T04:30:10.411Z,17.25
2022-11-12T04:35:31.330Z,18.00
2022-11-12T04:41:10.563Z,17.02
2022-11-12T04:46:31.250Z,16.08
2022-11-12T04:52:07.012Z,18.77
2022-11-12T04:57:27.480Z,18.45
2022-11-12T05:02:50.392Z,23.13
2022-11-12T05:14:15.402Z,17.73
2022-11-12T05:19:37.311Z,20.70
2022-11-12T05:24:58.178Z,24.23
2022-11-12T05:30:18.976Z,20.63
2022-11-12T05:35:39.700Z,20.48
2022-11-12T05:41:00.588Z,30.67
2022-11-12T05:46:21.502Z,31.25
2022-11-12T05:51:42.654Z,22.92
2022-11-12T05:57:03.207Z,27.15
2022-11-12T06:02:24.156Z,21.70
2022-11-12T06:07:44.972Z,17.75
2022-11-12T06:13:06.729Z,23.05
2022-11-12T06:23:52.571Z,16.33
2022-11-12T06:29:13.329Z,25.50
2022-11-12T06:34:34.129Z,21.23
2022-11-12T06:39:55.049Z,20.25
2022-11-12T06:45:15.902Z,24.98
2022-11-12T06:50:36.710Z,34.28
2022-11-12T06:56:03.021Z,32.83
2022-11-12T07:01:24.086Z,27.90
2022-11-12T07:06:44.747Z,28.80
2022-11-12T07:12:05.989Z,38.20
2022-11-12T07:17:26.617Z,38.45
2022-11-12T07:22:47.476Z,33.40
2022-11-12T07:28:08.216Z,37.00
2022-11-12T07:33:30.983Z,34.72
2022-11-12T07:38:56.242Z,33.97
2022-11-12T07:44:16.622Z,29.17
2022-11-12T07:49:37.258Z,28.25
2022-11-12T07:54:59.553Z,27.00
2022-11-12T08:00:20.308Z,25.88
2022-11-12T08:05:41.140Z,29.33
2022-11-12T08:11:02.062Z,37.20
2022-11-12T08:16:23.162Z,38.80
2022-11-12T08:21:44.749Z,25.77
2022-11-12T08:32:29.139Z,26.70
2022-11-12T08:37:50.391Z,29.13
2022-11-12T08:43:11.714Z,34.20
2022-11-12T08:48:34.673Z,33.35
2022-11-12T08:53:55.572Z,36.80
2022-11-12T09:04:37.157Z,28.13
2022-11-12T09:09:58.522Z,34.85
2022-11-12T09:21:08.927Z,39.97
2022-11-12T09:26:29.698Z,39.08
2022-11-12T09:31:50.886Z,41.22
2022-11-12T09:37:11.507Z,36.78
2022-11-12T09:42:35.839Z,35.38
2022-11-12T09:48:06.750Z,37.50
2022-11-12T09:53:58.037Z,38.63
2022-11-12T09:59:19.413Z,75.90
2022-11-12T10:04:49.674Z,82.82
2022-11-12T10:10:16.482Z,54.97
2022-11-12T10:15:58.802Z,45.95
2022-11-12T10:21:35.216Z,43.33
2022-11-12T10:26:57.816Z,45.95
2022-11-12T10:32:18.678Z,44.72
2022-11-12T10:37:49.333Z,47.50
2022-11-12T10:43:16.462Z,50.08
2022-11-12T10:48:37.228Z,49.45
2022-11-12T10:53:58.146Z,48.38
2022-11-12T10:59:25.911Z,47.95
2022-11-12T11:04:47.023Z,135.85
2022-11-12T11:10:32.974Z,78.20
2022-11-12T11:16:05.609Z,82.10
2022-11-12T11:21:41.934Z,154.18
2022-11-12T11:27:05.257Z,93.63
2022-11-12T11:32:37.601Z,63.55
2022-11-12T11:38:36.294Z,69.13
2022-11-12T11:44:14.116Z,105.35
2022-11-12T11:49:59.533Z,151.63
2022-11-12T11:55:38.664Z,155.40
2022-11-12T12:01:05.308Z,53.10
2022-11-12T12:06:47.106Z,53.03
2022-11-12T12:12:30.209Z,57.13
2022-11-12T12:18:23.038Z,62.20
2022-11-12T12:23:48.810Z,61.50
2022-11-12T12:29:29.185Z,58.70
2022-11-12T12:34:59.293Z,55.30
2022-11-12T12:45:46.730Z,38.42
2022-11-12T12:51:07.464Z,37.90
2022-11-12T12:56:34.468Z,57.15
2022-11-12T13:01:59.557Z,46.55
2022-11-12T13:07:39.239Z,47.05
2022-11-12T13:13:27.588Z,54.67
2022-11-12T13:18:51.756Z,50.65
2022-11-12T13:24:14.465Z,74.00
2022-11-12T13:29:37.986Z,107.60
2022-11-12T13:35:17.369Z,42.58
2022-11-12T13:40:55.491Z,49.20
2022-11-12T13:46:33.632Z,49.10
2022-11-12T13:51:56.833Z,154.65
2022-11-12T13:57:24.220Z,120.43
2022-11-12T14:02:49.441Z,77.47
2022-11-12T14:08:29.350Z,88.78
2022-11-12T14:14:16.028Z,69.10
2022-11-12T14:20:00.586Z,77.93
2022-11-12T14:25:24.016Z,62.10
2022-11-12T14:30:45.313Z,59.03
2022-11-12T14:36:11.076Z,63.05
2022-11-12T14:41:39.195Z,65.63
2022-11-12T14:47:01.065Z,63.08
2022-11-12T14:52:28.160Z,62.97
2022-11-12T14:57:49.427Z,76.80
2022-11-12T15:03:21.049Z,61.88
2022-11-12T15:08:41.904Z,67.13
2022-11-12T15:14:04.665Z,65.95
2022-11-12T15:19:27.878Z,57.28
2022-11-12T15:24:49.956Z,53.75
2022-11-12T15:30:23.790Z,56.15
2022-11-12T15:35:45.401Z,51.25
2022-11-12T15:41:06.840Z,54.95
2022-11-12T15:46:28.236Z,60.08
2022-11-12T15:51:48.942Z,80.95
2022-11-12T15:57:23.672Z,64.90
2022-11-12T16:02:47.012Z,41.60
2022-11-12T16:08:07.930Z,40.22
2022-11-12T16:13:33.553Z,66.95
2022-11-12T16:18:54.013Z,68.95
2022-11-12T16:24:14.842Z,91.65
2022-11-12T16:29:36.000Z,78.82
2022-11-12T16:35:01.116Z,70.43
2022-11-12T16:40:25.409Z,72.50
2022-11-12T16:45:46.447Z,65.85
2022-11-12T16:56:32.190Z,72.45
2022-11-12T17:07:13.696Z,98.75
2022-11-12T17:12:34.571Z,80.22
2022-11-12T17:17:55.543Z,74.35
2022-11-12T17:23:16.676Z,66.55
2022-11-12T17:33:59.386Z,51.78
2022-11-12T17:44:41.077Z,55.63
2022-11-12T17:50:01.948Z,50.72
2022-11-12T17:55:23.821Z,58.10
2022-11-12T18:00:48.707Z,217.15
2022-11-12T18:06:17.165Z,61.92
2022-11-12T18:11:50.528Z,42.50
2022-11-12T18:17:11.086Z,38.60
2022-11-12T18:22:32.215Z,29.85
2022-11-12T18:27:52.709Z,30.88
2022-11-12T18:33:13.424Z,29.83
2022-11-12T18:38:36.037Z,31.33
2022-11-12T18:43:57.554Z,36.65
2022-11-12T18:49:18.578Z,35.38
2022-11-12T18:54:39.426Z,33.33
2022-11-12T19:00:00.275Z,41.03
2022-11-12T19:05:22.275Z,47.55
2022-11-12T19:10:42.895Z,41.95
2022-11-12T19:16:17.155Z,35.05
2022-11-12T19:21:38.694Z,37.28
2022-11-12T19:26:59.489Z,41.15
2022-11-12T19:32:20.614Z,26.73
2022-11-12T19:37:41.082Z,31.10
2022-11-12T19:43:01.993Z,26.13
2022-11-12T19:48:22.923Z,52.20
2022-11-12T19:53:46.897Z,85.50
2022-11-12T19:59:07.945Z,30.20
2022-11-12T20:04:28.837Z,49.50
2022-11-12T20:09:49.950Z,36.92
2022-11-12T20:15:11.132Z,37.13
2022-11-12T20:25:53.252Z,35.17
2022-11-12T20:31:20.925Z,29.95
2022-11-12T20:36:41.536Z,24.00
2022-11-12T20:42:02.270Z,27.75
2022-11-12T20:47:23.683Z,33.72
2022-11-12T20:58:05.181Z,36.20
2022-11-12T21:03:25.826Z,42.33
2022-11-12T21:08:46.731Z,32.58
2022-11-12T21:14:07.420Z,40.58
2022-11-12T21:19:28.376Z,45.28
2022-11-12T21:24:49.412Z,43.47
2022-11-12T21:30:10.882Z,46.47
2022-11-12T21:40:52.206Z,32.13
2022-11-12T21:46:14.336Z,38.72
2022-11-12T21:51:34.917Z,50.78
2022-11-12T21:56:55.890Z,50.30
2022-11-12T22:02:16.780Z,52.15
2022-11-12T22:07:37.616Z,43.17
2022-11-12T22:13:25.340Z,34.95
2022-11-12T22:18:41.853Z,40.45
2022-11-12T22:24:02.989Z,42.03
2022-11-12T22:29:23.774Z,51.90
2022-11-12T22:34:49.256Z,55.97
2022-11-12T22:40:13.615Z,50.00
2022-11-12T22:45:35.782Z,50.13
2022-11-12T22:51:04.807Z,46.60
2022-11-12T22:56:27.659Z,40.75
2022-11-12T23:01:48.442Z,46.03
2022-11-12T23:07:09.377Z,39.15
2022-11-12T23:12:30.549Z,43.70
2022-11-12T23:23:11.840Z,38.55
2022-11-12T23:28:33.771Z,37.45
2022-11-12T23:33:56.579Z,31.75
2022-11-12T23:39:17.299Z,33.40
2022-11-12T23:44:38.181Z,36.65
2022-11-12T23:49:58.880Z,33.30
2022-11-12T23:55:19.659Z,32.38
